createdAt,value
2017-12-21T00:01:56.885Z,3.60
2017-12-21T00:04:24.005Z,3.60
2017-12-21T00:06:51.153Z,3.60
2017-12-21T00:09:18.293Z,3.50
2017-12-21T00:11:45.433Z,3.60
2017-12-21T00:14:12.572Z,3.40
2017-12-21T00:16:39.692Z,3.40
2017-12-21T00:19:06.851Z,3.50
2017-12-21T00:21:33.993Z,3.50
2017-12-21T00:24:01.153Z,3.60
2017-12-21T00:26:28.282Z,3.60
2017-12-21T00:28:55.432Z,3.50
2017-12-21T00:31:22.591Z,3.50
2017-12-21T00:33:49.726Z,3.40
2017-12-21T00:36:16.845Z,3.50
2017-12-21T00:38:43.978Z,3.60
2017-12-21T00:41:11.085Z,3.50
2017-12-21T00:43:38.229Z,3.50
2017-12-21T00:46:11.665Z,3.50
2017-12-21T00:48:38.816Z,3.40
2017-12-21T00:51:06.023Z,3.50
2017-12-21T00:53:33.162Z,3.60
2017-12-21T00:56:01.077Z,3.60
2017-12-21T00:58:28.214Z,3.60
2017-12-21T01:00:55.365Z,3.70
2017-12-21T01:03:22.488Z,3.50
2017-12-21T01:05:49.662Z,3.40
2017-12-21T01:08:16.797Z,3.60
2017-12-21T01:10:43.970Z,3.50
2017-12-21T01:13:11.101Z,3.40
2017-12-21T01:15:38.236Z,3.30
2017-12-21T01:18:05.368Z,3.30
2017-12-21T01:20:33.265Z,3.40
2017-12-21T01:23:00.401Z,3.40
2017-12-21T01:25:27.560Z,3.50
2017-12-21T01:27:54.702Z,3.50
2017-12-21T01:30:21.875Z,3.40
2017-12-21T01:32:48.993Z,3.50
2017-12-21T01:35:16.132Z,3.60
2017-12-21T01:37:44.177Z,3.40
2017-12-21T01:40:11.318Z,3.40
2017-12-21T01:42:38.428Z,3.50
2017-12-21T01:45:05.579Z,3.50
2017-12-21T01:47:32.813Z,3.50
2017-12-21T01:49:59.936Z,3.50
2017-12-21T01:52:27.107Z,3.50
2017-12-21T01:54:54.986Z,3.50
2017-12-21T01:57:22.114Z,3.40
2017-12-21T01:59:49.973Z,3.40
2017-12-21T02:02:17.109Z,3.40
2017-12-21T02:04:44.233Z,3.50
2017-12-21T02:07:11.553Z,3.60
2017-12-21T02:09:38.672Z,3.60
2017-12-21T02:12:05.909Z,3.50
2017-12-21T02:14:33.136Z,3.60
2017-12-21T02:17:00.309Z,3.60
2017-12-21T02:19:27.433Z,3.40
2017-12-21T02:21:54.541Z,3.30
2017-12-21T02:24:22.454Z,3.40
2017-12-21T02:26:49.582Z,3.40
2017-12-21T02:29:16.719Z,3.50
2017-12-21T02:31:43.845Z,3.60
2017-12-21T02:34:11.767Z,3.60
2017-12-21T02:36:38.896Z,3.70
2017-12-21T02:39:06.041Z,3.60
2017-12-21T02:41:33.161Z,3.50
2017-12-21T02:44:01.064Z,3.60
2017-12-21T02:46:28.187Z,3.60
2017-12-21T02:48:56.097Z,3.70
2017-12-21T02:51:23.237Z,3.70
2017-12-21T02:53:50.437Z,3.70
2017-12-21T02:56:18.325Z,3.60
2017-12-21T02:58:45.461Z,3.60
2017-12-21T03:01:13.378Z,3.60
2017-12-21T03:03:40.502Z,3.60
2017-12-21T03:06:07.645Z,3.60
2017-12-21T03:08:35.526Z,3.60
2017-12-21T03:11:02.647Z,3.60
2017-12-21T03:13:30.537Z,3.60
2017-12-21T03:15:57.690Z,3.60
2017-12-21T03:18:24.813Z,3.50
2017-12-21T03:20:52.728Z,3.50
2017-12-21T03:23:19.926Z,3.50
2017-12-21T03:25:47.033Z,3.60
2017-12-21T03:28:14.174Z,3.60
2017-12-21T03:30:41.323Z,3.60
2017-12-21T03:33:08.452Z,3.60
2017-12-21T03:35:35.569Z,3.70
2017-12-21T03:38:02.710Z,3.70
2017-12-21T03:40:29.837Z,3.60
2017-12-21T03:42:56.976Z,3.70
2017-12-21T03:45:24.097Z,3.70
2017-12-21T03:47:51.246Z,3.70
2017-12-21T03:50:18.407Z,3.80
2017-12-21T03:52:45.548Z,3.80
2017-12-21T03:55:12.697Z,3.60
2017-12-21T03:57:39.840Z,3.70
2017-12-21T04:00:06.954Z,3.70
2017-12-21T04:02:34.085Z,3.60
2017-12-21T04:05:01.972Z,3.80
2017-12-21T04:07:29.189Z,3.70
2017-12-21T04:09:56.386Z,3.70
2017-12-21T04:12:23.520Z,3.60
2017-12-21T04:14:50.681Z,3.60
2017-12-21T04:17:17.812Z,3.70
2017-12-21T04:19:44.954Z,3.80
2017-12-21T04:22:12.086Z,3.70
2017-12-21T04:24:39.282Z,3.70
2017-12-21T04:27:06.417Z,3.70
2017-12-21T04:29:33.556Z,3.80
2017-12-21T04:32:00.699Z,3.70
2017-12-21T04:34:27.825Z,3.60
2017-12-21T04:36:54.971Z,3.70
2017-12-21T04:39:22.100Z,3.80
2017-12-21T04:41:50.027Z,3.70
2017-12-21T04:44:17.199Z,3.70
2017-12-21T04:46:45.111Z,3.80
2017-12-21T04:49:12.253Z,3.70
2017-12-21T04:51:39.397Z,3.70
2017-12-21T04:54:06.551Z,3.60
2017-12-21T04:56:33.701Z,3.60
2017-12-21T04:59:00.834Z,3.70
2017-12-21T05:01:28.721Z,3.70
2017-12-21T05:03:55.864Z,3.70
2017-12-21T05:06:23.003Z,3.70
2017-12-21T05:08:50.137Z,3.80
2017-12-21T05:11:18.031Z,3.80
2017-12-21T05:13:45.201Z,3.70
2017-12-21T05:16:13.107Z,3.80
2017-12-21T05:18:40.240Z,3.80
2017-12-21T05:21:07.377Z,3.80
2017-12-21T05:23:34.518Z,3.80
2017-12-21T05:26:01.665Z,3.70
2017-12-21T05:28:28.789Z,3.70
2017-12-21T05:30:55.929Z,3.70
2017-12-21T05:33:23.813Z,3.70
2017-12-21T05:35:50.938Z,3.60
2017-12-21T05:38:18.845Z,3.70
2017-12-21T05:40:45.969Z,3.60
2017-12-21T05:43:13.221Z,3.60
2017-12-21T05:45:40.350Z,3.70
2017-12-21T05:48:08.277Z,3.70
2017-12-21T05:50:35.404Z,3.70
2017-12-21T05:53:02.550Z,3.70
2017-12-21T05:55:29.694Z,3.60
2017-12-21T05:57:56.862Z,3.60
2017-12-21T06:00:23.996Z,3.50
2017-12-21T06:02:51.213Z,3.60
2017-12-21T06:05:18.365Z,3.60
2017-12-21T06:07:46.250Z,3.70
2017-12-21T06:10:13.401Z,3.70
2017-12-21T06:12:40.520Z,3.70
2017-12-21T06:15:07.661Z,3.60
2017-12-21T06:17:34.912Z,3.60
2017-12-21T06:20:02.049Z,3.70
2017-12-21T06:22:29.187Z,3.70
2017-12-21T06:24:56.332Z,3.60
2017-12-21T06:27:23.452Z,3.60
2017-12-21T06:29:50.594Z,3.60
2017-12-21T06:32:17.739Z,3.60
2017-12-21T06:34:45.771Z,3.70
2017-12-21T06:37:12.970Z,3.60
2017-12-21T06:39:40.101Z,3.60
2017-12-21T06:42:07.997Z,3.60
2017-12-21T06:44:35.145Z,3.60
2017-12-21T06:47:02.267Z,3.50
2017-12-21T06:49:30.438Z,3.40
2017-12-21T06:51:58.341Z,3.50
2017-12-21T06:54:25.488Z,3.50
2017-12-21T06:56:52.629Z,3.50
2017-12-21T06:59:19.753Z,3.60
2017-12-21T07:01:47.666Z,3.50
2017-12-21T07:04:14.805Z,3.50
2017-12-21T07:06:41.945Z,3.60
2017-12-21T07:09:09.066Z,3.60
2017-12-21T07:11:36.975Z,3.70
2017-12-21T07:14:04.105Z,3.70
2017-12-21T07:16:31.248Z,3.70
2017-12-21T07:18:59.142Z,3.70
2017-12-21T07:21:26.286Z,3.70
2017-12-21T07:23:53.414Z,3.70
2017-12-21T07:26:20.565Z,3.80
2017-12-21T07:28:47.685Z,3.70
2017-12-21T07:31:14.845Z,3.70
2017-12-21T07:33:42.744Z,3.80
2017-12-21T07:36:09.873Z,3.70
2017-12-21T07:38:37.809Z,3.70
2017-12-21T07:41:04.948Z,3.70
2017-12-21T07:43:32.098Z,3.70
2017-12-21T07:45:59.228Z,3.70
2017-12-21T07:48:26.365Z,3.80
2017-12-21T07:50:53.482Z,3.70
2017-12-21T07:53:21.395Z,3.80
2017-12-21T07:55:48.545Z,3.70
2017-12-21T07:58:15.714Z,3.70
2017-12-21T08:00:42.837Z,3.80
2017-12-21T08:03:09.983Z,3.80
2017-12-21T08:05:37.119Z,3.80
2017-12-21T08:08:04.250Z,3.80
2017-12-21T08:10:32.140Z,3.80
2017-12-21T08:12:59.284Z,3.80
2017-12-21T08:15:26.416Z,3.80
2017-12-21T08:17:54.342Z,3.80
2017-12-21T08:20:21.483Z,3.80
2017-12-21T08:22:49.379Z,3.90
2017-12-21T08:25:16.551Z,3.80
2017-12-21T08:27:44.434Z,3.80
2017-12-21T08:30:11.566Z,3.80
2017-12-21T08:32:39.460Z,3.90
2017-12-21T08:35:07.389Z,4.00
2017-12-21T08:37:35.272Z,3.90
2017-12-21T08:40:03.221Z,3.90
2017-12-21T08:42:30.365Z,3.90
2017-12-21T08:44:57.525Z,3.80
2017-12-21T08:47:25.418Z,4.00
2017-12-21T08:49:52.564Z,3.90
2017-12-21T08:52:19.748Z,3.90
2017-12-21T08:54:46.969Z,3.90
2017-12-21T08:57:14.160Z,4.00
2017-12-21T08:59:42.061Z,4.10
2017-12-21T09:02:09.974Z,4.10
2017-12-21T09:04:37.096Z,4.00
2017-12-21T09:07:05.002Z,4.20
2017-12-21T09:09:32.144Z,4.20
2017-12-21T09:11:59.312Z,4.20
2017-12-21T09:14:26.431Z,4.20
2017-12-21T09:16:53.561Z,4.20
2017-12-21T09:19:21.453Z,4.40
2017-12-21T09:21:48.588Z,4.40
2017-12-21T09:24:15.766Z,4.40
2017-12-21T09:26:42.912Z,4.40
2017-12-21T09:29:10.036Z,4.40
2017-12-21T09:31:37.166Z,4.40
2017-12-21T09:34:05.062Z,4.30
2017-12-21T09:36:32.220Z,4.30
2017-12-21T09:38:59.357Z,4.10
2017-12-21T09:41:26.479Z,4.20
2017-12-21T09:43:54.388Z,4.20
2017-12-21T09:46:21.549Z,4.20
2017-12-21T09:48:48.717Z,4.10
2017-12-21T09:51:15.842Z,4.20
2017-12-21T09:53:43.009Z,4.30
2017-12-21T09:56:10.941Z,4.30
2017-12-21T09:58:38.089Z,4.30
2017-12-21T10:01:06.141Z,4.40
2017-12-21T10:03:34.054Z,4.40
2017-12-21T10:06:01.169Z,4.40
2017-12-21T10:08:28.296Z,4.40
2017-12-21T10:10:56.231Z,4.40
2017-12-21T10:13:23.377Z,4.50
2017-12-21T10:15:50.523Z,4.50
2017-12-21T10:18:17.678Z,4.50
2017-12-21T10:20:44.841Z,4.50
2017-12-21T10:23:12.014Z,4.50
2017-12-21T10:25:39.153Z,4.50
2017-12-21T10:28:06.289Z,4.50
2017-12-21T10:30:33.436Z,4.60
2017-12-21T10:33:00.587Z,4.50
2017-12-21T10:35:27.728Z,4.60
2017-12-21T10:37:54.847Z,4.60
2017-12-21T10:40:21.997Z,4.60
2017-12-21T10:42:49.154Z,4.60
2017-12-21T10:45:16.303Z,4.60
2017-12-21T10:47:43.446Z,4.70
2017-12-21T10:50:10.569Z,4.80
2017-12-21T10:52:38.475Z,4.80
2017-12-21T10:55:05.597Z,4.80
2017-12-21T10:57:32.745Z,4.80
2017-12-21T10:59:59.865Z,4.90
2017-12-21T11:02:27.023Z,4.90
2017-12-21T11:04:54.939Z,5.00
2017-12-21T11:07:22.095Z,5.00
2017-12-21T11:09:49.221Z,4.90
2017-12-21T11:12:16.355Z,5.00
2017-12-21T11:14:44.308Z,4.90
2017-12-21T11:17:12.201Z,4.90
2017-12-21T11:19:39.350Z,4.90
2017-12-21T11:22:06.464Z,4.90
2017-12-21T11:24:33.589Z,4.80
2017-12-21T11:27:01.648Z,4.90
2017-12-21T11:29:28.826Z,4.90
2017-12-21T11:31:55.950Z,5.00
2017-12-21T11:34:23.450Z,4.90
2017-12-21T11:36:51.364Z,4.90
2017-12-21T11:39:18.477Z,4.90
2017-12-21T11:41:45.635Z,5.00
2017-12-21T11:44:13.560Z,5.20
2017-12-21T11:46:40.719Z,5.10
2017-12-21T11:49:07.858Z,5.10
2017-12-21T11:51:35.001Z,5.20
2017-12-21T11:54:02.119Z,5.20
2017-12-21T11:56:29.253Z,5.20
2017-12-21T11:58:56.391Z,5.20
2017-12-21T12:01:24.361Z,5.10
2017-12-21T12:03:52.300Z,5.20
2017-12-21T12:06:19.433Z,5.20
2017-12-21T12:08:46.589Z,5.10
2017-12-21T12:11:13.725Z,5.10
2017-12-21T12:13:40.854Z,5.20
2017-12-21T12:16:08.831Z,5.30
2017-12-21T12:18:35.965Z,5.30
2017-12-21T12:21:03.094Z,5.40
2017-12-21T12:23:31.014Z,5.40
2017-12-21T12:25:58.177Z,5.40
2017-12-21T12:28:25.324Z,5.40
2017-12-21T12:30:52.493Z,5.30
2017-12-21T12:33:19.638Z,5.30
2017-12-21T12:35:46.796Z,5.30
2017-12-21T12:38:13.938Z,5.30
2017-12-21T12:40:42.606Z,5.40
2017-12-21T12:43:09.770Z,5.40
2017-12-21T12:45:36.905Z,5.40
2017-12-21T12:48:04.054Z,5.50
2017-12-21T12:50:31.201Z,5.50
2017-12-21T12:52:58.334Z,5.60
2017-12-21T12:55:25.487Z,5.60
2017-12-21T12:57:52.614Z,5.60
2017-12-21T13:00:19.786Z,5.60
2017-12-21T13:02:46.928Z,5.70
2017-12-21T13:05:14.065Z,5.70
2017-12-21T13:07:41.205Z,5.70
2017-12-21T13:10:08.333Z,5.70
2017-12-21T13:12:36.296Z,5.80
2017-12-21T13:15:04.201Z,5.80
2017-12-21T13:17:31.334Z,5.80
2017-12-21T13:19:59.249Z,5.80
2017-12-21T13:22:26.384Z,5.80
2017-12-21T13:24:53.541Z,5.90
2017-12-21T13:27:20.786Z,5.80
2017-12-21T13:29:47.974Z,5.80
2017-12-21T13:32:15.122Z,5.70
2017-12-21T13:34:42.259Z,5.70
2017-12-21T13:37:09.413Z,5.70
2017-12-21T13:39:36.600Z,5.70
2017-12-21T13:42:04.625Z,5.70
2017-12-21T13:44:31.769Z,5.70
2017-12-21T13:46:58.966Z,5.80
2017-12-21T13:49:26.876Z,5.80
2017-12-21T13:51:54.282Z,5.70
2017-12-21T13:54:22.205Z,5.70
2017-12-21T13:56:49.338Z,5.70
2017-12-21T13:59:16.481Z,5.70
2017-12-21T14:01:43.637Z,5.70
2017-12-21T14:04:10.777Z,5.60
2017-12-21T14:06:37.941Z,5.60
2017-12-21T14:09:05.089Z,5.70
2017-12-21T14:11:32.297Z,5.70
2017-12-21T14:14:00.189Z,5.70
2017-12-21T14:16:27.969Z,5.70
2017-12-21T14:18:55.092Z,5.70
2017-12-21T14:21:22.246Z,5.70
2017-12-21T14:23:49.385Z,5.70
2017-12-21T14:26:17.293Z,5.70
2017-12-21T14:28:44.412Z,5.70
2017-12-21T14:31:11.567Z,5.70
2017-12-21T14:33:38.688Z,5.70
2017-12-21T14:36:06.590Z,5.60
2017-12-21T14:38:33.739Z,5.60
2017-12-21T14:41:00.867Z,5.60
2017-12-21T14:43:28.766Z,5.40
2017-12-21T14:45:55.902Z,5.40
2017-12-21T14:48:23.052Z,5.40
2017-12-21T14:50:50.188Z,5.60
2017-12-21T14:53:18.184Z,5.50
2017-12-21T14:55:45.396Z,5.50
2017-12-21T14:58:13.314Z,5.50
2017-12-21T15:00:40.437Z,5.50
2017-12-21T15:03:07.573Z,5.50
2017-12-21T15:05:35.509Z,5.60
2017-12-21T15:08:02.735Z,5.50
2017-12-21T15:10:29.898Z,5.60
2017-12-21T15:12:57.795Z,5.60
2017-12-21T15:15:24.924Z,5.60
2017-12-21T15:17:52.075Z,5.60
2017-12-21T15:20:19.201Z,5.60
2017-12-21T15:22:46.335Z,5.60
2017-12-21T15:25:13.480Z,5.60
2017-12-21T15:27:40.625Z,5.60
2017-12-21T15:30:07.749Z,5.50
2017-12-21T15:32:35.665Z,5.60
2017-12-21T15:35:02.813Z,5.60
2017-12-21T15:37:29.947Z,5.50
2017-12-21T15:39:57.090Z,5.50
2017-12-21T15:42:24.243Z,5.40
2017-12-21T15:44:51.465Z,5.40
2017-12-21T15:47:19.358Z,5.40
2017-12-21T15:49:46.503Z,5.30
2017-12-21T15:52:13.648Z,5.40
2017-12-21T15:54:40.791Z,5.40
2017-12-21T15:57:08.696Z,5.50
2017-12-21T15:59:35.819Z,5.50
2017-12-21T16:02:02.965Z,5.50
2017-12-21T16:04:30.105Z,5.50
2017-12-21T16:06:57.256Z,5.50
2017-12-21T16:09:25.144Z,5.50
2017-12-21T16:11:52.260Z,5.50
2017-12-21T16:14:20.172Z,5.40
2017-12-21T16:16:47.307Z,5.40
2017-12-21T16:19:14.450Z,5.50
2017-12-21T16:21:41.599Z,5.50
2017-12-21T16:24:08.763Z,5.40
2017-12-21T16:26:35.886Z,5.40
2017-12-21T16:29:03.798Z,5.50
2017-12-21T16:31:30.930Z,5.50
2017-12-21T16:33:58.214Z,5.40
2017-12-21T16:36:25.389Z,5.40
2017-12-21T16:38:52.505Z,5.50
2017-12-21T16:41:19.673Z,5.50
2017-12-21T16:43:46.805Z,5.40
2017-12-21T16:46:13.917Z,5.40
2017-12-21T16:48:41.055Z,5.30
2017-12-21T16:51:08.194Z,5.30
2017-12-21T16:53:36.082Z,5.20
2017-12-21T16:56:03.211Z,5.20
2017-12-21T16:58:31.146Z,5.20
2017-12-21T17:00:58.263Z,5.20
2017-12-21T17:03:25.420Z,5.20
2017-12-21T17:05:52.639Z,5.20
2017-12-21T17:08:20.549Z,5.10
2017-12-21T17:10:47.674Z,5.10
2017-12-21T17:13:14.819Z,5.10
2017-12-21T17:15:41.942Z,5.10
2017-12-21T17:18:09.077Z,5.10
2017-12-21T17:20:36.980Z,5.10
2017-12-21T17:23:04.143Z,5.10
2017-12-21T17:25:31.270Z,5.10
2017-12-21T17:27:59.154Z,5.10
2017-12-21T17:30:26.315Z,5.10
2017-12-21T17:32:53.476Z,5.10
2017-12-21T17:35:20.653Z,5.10
2017-12-21T17:37:47.765Z,5.10
2017-12-21T17:40:14.901Z,5.10
2017-12-21T17:42:42.048Z,5.10
2017-12-21T17:45:09.212Z,5.10
2017-12-21T17:47:36.514Z,5.10
2017-12-21T17:50:03.673Z,5.10
2017-12-21T17:52:31.593Z,5.10
2017-12-21T17:54:58.714Z,5.10
2017-12-21T17:57:25.855Z,5.10
2017-12-21T17:59:53.768Z,5.10
2017-12-21T18:02:20.922Z,5.10
2017-12-21T18:04:48.164Z,5.10
2017-12-21T18:07:15.340Z,5.10
2017-12-21T18:09:42.502Z,5.20
2017-12-21T18:12:09.695Z,5.20
2017-12-21T18:14:36.834Z,5.20
2017-12-21T18:17:04.000Z,5.20
2017-12-21T18:19:31.133Z,5.20
2017-12-21T18:21:58.283Z,5.20
2017-12-21T18:24:25.416Z,5.20
2017-12-21T18:26:53.350Z,5.10
2017-12-21T18:29:20.496Z,5.10
2017-12-21T18:31:47.776Z,5.20
2017-12-21T18:34:15.685Z,5.20
2017-12-21T18:36:42.857Z,5.20
2017-12-21T18:39:10.056Z,5.20
2017-12-21T18:41:38.308Z,5.10
2017-12-21T18:44:05.510Z,5.10
2017-12-21T18:46:32.703Z,5.10
2017-12-21T18:49:00.029Z,5.10
2017-12-21T18:51:27.272Z,5.10
2017-12-21T18:53:54.501Z,5.10
2017-12-21T18:56:22.522Z,5.10
2017-12-21T18:58:49.738Z,5.10
2017-12-21T19:01:16.964Z,5.10
2017-12-21T19:03:44.925Z,5.10
2017-12-21T19:06:12.908Z,5.10
2017-12-21T19:08:40.173Z,5.20
2017-12-21T19:11:07.438Z,5.20
2017-12-21T19:13:34.662Z,5.10
2017-12-21T19:16:02.672Z,5.20
2017-12-21T19:18:29.897Z,5.20
2017-12-21T19:20:57.154Z,5.20
2017-12-21T19:23:24.399Z,5.20
2017-12-21T19:25:51.658Z,5.20
2017-12-21T19:28:18.913Z,5.20
2017-12-21T19:30:47.929Z,5.20
2017-12-21T19:33:15.970Z,5.20
2017-12-21T19:35:43.210Z,5.20
2017-12-21T19:38:11.292Z,5.20
2017-12-21T19:40:38.600Z,5.20
2017-12-21T19:43:05.934Z,5.20
2017-12-21T19:45:33.977Z,5.20
2017-12-21T19:48:01.280Z,5.20
2017-12-21T19:50:28.617Z,5.20
2017-12-21T19:52:56.640Z,5.30
2017-12-21T19:55:23.881Z,5.20
2017-12-21T19:57:51.930Z,5.30
2017-12-21T20:00:19.226Z,5.30
2017-12-21T20:02:46.585Z,5.30
2017-12-21T20:05:13.852Z,5.30
2017-12-21T20:07:41.135Z,5.30
2017-12-21T20:10:08.388Z,5.30
2017-12-21T20:12:35.664Z,5.30
2017-12-21T20:15:02.956Z,5.30
2017-12-21T20:17:30.250Z,5.30
2017-12-21T20:19:57.516Z,5.40
2017-12-21T20:22:24.801Z,5.40
2017-12-21T20:24:52.097Z,5.40
2017-12-21T20:27:19.359Z,5.40
2017-12-21T20:29:46.659Z,5.40
2017-12-21T20:32:13.930Z,5.40
2017-12-21T20:34:41.174Z,5.40
2017-12-21T20:37:08.440Z,5.40
2017-12-21T20:39:35.739Z,5.40
2017-12-21T20:42:02.989Z,5.50
2017-12-21T20:44:30.269Z,5.50
2017-12-21T20:46:57.530Z,5.50
2017-12-21T20:49:24.813Z,5.60
2017-12-21T20:51:52.042Z,5.60
2017-12-21T20:54:19.256Z,5.70
2017-12-21T20:56:46.529Z,5.70
2017-12-21T20:59:13.825Z,5.70
2017-12-21T21:01:41.071Z,5.70
2017-12-21T21:04:08.289Z,5.70
2017-12-21T21:06:35.553Z,5.70
2017-12-21T21:09:02.848Z,5.70
2017-12-21T21:11:30.114Z,5.80
2017-12-21T21:13:57.375Z,5.80
2017-12-21T21:16:25.398Z,5.90
2017-12-21T21:18:52.645Z,5.90
2017-12-21T21:21:19.922Z,5.90
2017-12-21T21:23:47.918Z,5.80
2017-12-21T21:26:15.948Z,5.90
2017-12-21T21:28:43.219Z,5.90
2017-12-21T21:31:10.617Z,6.00
2017-12-21T21:33:37.848Z,6.00
2017-12-21T21:36:05.873Z,5.80
2017-12-21T21:38:33.074Z,5.80
2017-12-21T21:41:01.046Z,5.70
2017-12-21T21:43:28.998Z,5.80
2017-12-21T21:45:56.211Z,5.70
2017-12-21T21:48:23.449Z,5.80
2017-12-21T21:50:50.647Z,5.80
2017-12-21T21:53:17.869Z,5.80
2017-12-21T21:55:44.997Z,5.80
2017-12-21T21:58:12.175Z,5.80
2017-12-21T22:00:39.294Z,5.80
2017-12-21T22:03:06.447Z,5.80
2017-12-21T22:05:33.569Z,5.70
2017-12-21T22:08:01.489Z,5.70
2017-12-21T22:10:29.378Z,5.70
2017-12-21T22:12:56.517Z,5.80
2017-12-21T22:15:24.393Z,5.60
2017-12-21T22:17:51.569Z,5.60
2017-12-21T22:20:19.468Z,5.70
2017-12-21T22:22:46.617Z,5.70
2017-12-21T22:25:13.736Z,5.60
2017-12-21T22:27:41.621Z,5.60
2017-12-21T22:30:08.756Z,5.60
2017-12-21T22:32:35.936Z,5.70
2017-12-21T22:35:03.122Z,5.70
2017-12-21T22:37:30.273Z,5.60
2017-12-21T22:39:57.428Z,5.60
2017-12-21T22:42:24.546Z,5.50
2017-12-21T22:44:51.690Z,5.50
2017-12-21T22:47:18.868Z,5.60
2017-12-21T22:49:45.993Z,5.60
2017-12-21T22:52:13.137Z,5.60
2017-12-21T22:54:40.266Z,5.70
2017-12-21T22:57:07.413Z,5.60
2017-12-21T22:59:34.545Z,5.60
2017-12-21T23:02:01.681Z,5.50
2017-12-21T23:04:29.586Z,5.60
2017-12-21T23:06:56.720Z,5.60
2017-12-21T23:09:23.849Z,5.60
2017-12-21T23:11:51.773Z,5.50
2017-12-21T23:14:18.898Z,5.50
2017-12-21T23:16:46.030Z,5.50
2017-12-21T23:19:13.204Z,5.50
2017-12-21T23:21:40.338Z,5.60
2017-12-21T23:24:08.233Z,5.60
2017-12-21T23:26:35.393Z,5.60
2017-12-21T23:29:03.246Z,5.60
2017-12-21T23:31:30.362Z,5.60
2017-12-21T23:33:58.266Z,5.70
2017-12-21T23:36:25.377Z,5.60
2017-12-21T23:38:53.274Z,5.70
2017-12-21T23:41:20.413Z,5.70
2017-12-21T23:43:47.531Z,5.70
2017-12-21T23:46:15.423Z,5.80
2017-12-21T23:48:42.583Z,5.70
2017-12-21T23:51:09.776Z,5.80
2017-12-21T23:53:36.907Z,5.70
2017-12-21T23:56:04.030Z,5.70
2017-12-21T23:58:31.178Z,5.80
